createdAt,value
2018-11-05T00:01:58.327Z,17.17
2018-11-05T00:04:27.252Z,16.47
2018-11-05T00:06:54.789Z,16.70
2018-11-05T00:09:22.311Z,15.90
2018-11-05T00:11:49.838Z,18.93
2018-11-05T00:14:17.353Z,18.40
2018-11-05T00:16:45.856Z,18.50
2018-11-05T00:23:48.691Z,18.93
2018-11-05T00:26:17.544Z,18.60
2018-11-05T00:28:47.204Z,17.60
2018-11-05T00:31:14.713Z,18.70
2018-11-05T00:33:42.454Z,18.20
2018-11-05T00:36:09.880Z,17.57
2018-11-05T00:38:37.322Z,17.73
2018-11-05T00:41:06.104Z,17.63
2018-11-05T00:43:33.554Z,18.97
2018-11-05T00:46:01.077Z,21.17
2018-11-05T00:48:30.178Z,20.27
2018-11-05T00:50:57.688Z,17.17
2018-11-05T00:53:26.159Z,17.43
2018-11-05T00:55:53.953Z,18.07
2018-11-05T00:58:21.383Z,20.83
2018-11-05T01:00:49.080Z,20.67
2018-11-05T01:03:16.682Z,18.83
2018-11-05T01:05:45.570Z,19.70
2018-11-05T01:08:13.042Z,20.37
2018-11-05T01:10:40.735Z,20.57
2018-11-05T01:13:08.247Z,18.67
2018-11-05T01:15:35.682Z,19.10
2018-11-05T01:18:04.139Z,18.77
2018-11-05T01:20:31.744Z,20.30
2018-11-05T01:22:59.418Z,19.47
2018-11-05T01:25:27.022Z,18.40
2018-11-05T01:27:54.628Z,21.93
2018-11-05T01:30:23.469Z,20.53
2018-11-05T01:32:51.562Z,17.07
2018-11-05T01:35:18.973Z,19.97
2018-11-05T01:37:46.533Z,21.67
2018-11-05T01:40:14.955Z,18.87
2018-11-05T01:42:43.740Z,19.20
2018-11-05T01:45:12.325Z,18.33
2018-11-05T01:47:40.462Z,18.87
2018-11-05T01:50:10.465Z,19.87
2018-11-05T01:52:38.222Z,19.20
2018-11-05T01:55:07.745Z,18.43
2018-11-05T01:57:35.393Z,17.13
2018-11-05T02:00:03.369Z,20.43
2018-11-05T02:02:30.978Z,19.30
2018-11-05T02:04:58.481Z,20.20
2018-11-05T02:07:28.506Z,18.70
2018-11-05T02:09:56.453Z,20.83
2018-11-05T02:12:23.988Z,20.53
2018-11-05T02:14:51.546Z,21.83
2018-11-05T02:17:20.065Z,18.57
2018-11-05T02:19:49.765Z,20.00
2018-11-05T02:22:17.283Z,18.77
2018-11-05T02:24:44.816Z,18.77
2018-11-05T02:27:12.480Z,20.03
2018-11-05T02:29:39.985Z,22.70
2018-11-05T02:32:09.758Z,20.50
2018-11-05T02:34:37.228Z,17.57
2018-11-05T02:37:05.417Z,20.30
2018-11-05T02:39:33.143Z,20.80
2018-11-05T02:42:00.660Z,20.93
2018-11-05T02:44:30.269Z,20.67
2018-11-05T02:46:57.851Z,21.70
2018-11-05T02:49:25.282Z,21.30
2018-11-05T02:51:54.077Z,23.00
2018-11-05T02:54:21.558Z,20.50
2018-11-05T02:56:49.981Z,18.80
2018-11-05T02:59:17.501Z,24.17
2018-11-05T03:01:46.340Z,21.17
2018-11-05T03:04:13.823Z,23.93
2018-11-05T03:06:41.284Z,23.10
2018-11-05T03:09:12.061Z,23.23
2018-11-05T03:11:40.167Z,26.60
2018-11-05T03:14:08.164Z,22.07
2018-11-05T03:16:36.121Z,22.30
2018-11-05T03:19:03.797Z,23.70
2018-11-05T03:21:32.577Z,23.27
2018-11-05T03:24:01.195Z,21.20
2018-11-05T03:26:28.670Z,26.03
2018-11-05T03:28:56.196Z,21.43
2018-11-05T03:31:23.973Z,22.77
2018-11-05T03:33:52.961Z,21.20
2018-11-05T03:36:20.952Z,22.20
2018-11-05T03:38:48.469Z,22.00
2018-11-05T03:41:15.954Z,20.70
2018-11-05T03:43:43.506Z,21.20
2018-11-05T03:46:11.988Z,24.13
2018-11-05T03:48:39.557Z,21.83
2018-11-05T03:51:07.137Z,20.27
2018-11-05T03:53:35.550Z,21.63
2018-11-05T03:56:03.207Z,21.83
2018-11-05T03:58:31.643Z,23.57
2018-11-05T04:01:00.449Z,21.47
2018-11-05T04:03:28.038Z,21.47
2018-11-05T04:05:55.459Z,17.90
2018-11-05T04:08:23.024Z,21.43
2018-11-05T04:10:52.007Z,19.77
2018-11-05T04:13:19.556Z,23.07
2018-11-05T04:15:47.279Z,21.73
2018-11-05T04:18:14.957Z,19.13
2018-11-05T04:20:42.599Z,19.57
2018-11-05T04:23:11.146Z,19.17
2018-11-05T04:25:38.701Z,20.60
2018-11-05T04:28:06.278Z,19.93
2018-11-05T04:30:33.858Z,20.43
2018-11-05T04:33:01.595Z,22.67
2018-11-05T04:35:30.427Z,21.23
2018-11-05T04:37:59.347Z,19.80
2018-11-05T04:40:26.853Z,19.90
2018-11-05T04:42:54.474Z,20.73
2018-11-05T04:45:22.292Z,19.63
2018-11-05T04:47:50.853Z,19.17
2018-11-05T04:50:18.397Z,21.87
2018-11-05T04:52:46.014Z,19.90
2018-11-05T04:55:14.254Z,19.07
2018-11-05T04:57:41.718Z,21.80
2018-11-05T05:00:13.474Z,20.57
2018-11-05T05:02:41.649Z,19.47
2018-11-05T05:05:09.934Z,19.50
2018-11-05T05:07:38.303Z,20.70
2018-11-05T05:10:06.379Z,20.10
2018-11-05T05:12:35.476Z,23.80
2018-11-05T05:15:03.813Z,21.27
2018-11-05T05:17:31.383Z,20.50
2018-11-05T05:19:58.881Z,23.60
2018-11-05T05:22:26.505Z,18.97
2018-11-05T05:24:54.930Z,20.97
2018-11-05T05:27:22.338Z,20.50
2018-11-05T05:29:49.970Z,21.47
2018-11-05T05:32:17.458Z,23.07
2018-11-05T05:34:45.044Z,21.47
2018-11-05T05:37:14.737Z,19.23
2018-11-05T05:39:42.242Z,20.47
2018-11-05T05:42:09.804Z,22.97
2018-11-05T05:44:37.367Z,22.57
2018-11-05T05:47:05.347Z,24.60
2018-11-05T05:49:34.329Z,21.73
2018-11-05T05:52:03.119Z,20.07
2018-11-05T05:54:30.974Z,22.60
2018-11-05T05:57:00.254Z,23.40
2018-11-05T05:59:28.253Z,24.90
2018-11-05T06:01:56.750Z,21.10
2018-11-05T06:04:24.538Z,23.10
2018-11-05T06:06:52.136Z,26.40
2018-11-05T06:09:19.556Z,25.73
2018-11-05T06:11:47.063Z,23.93
2018-11-05T06:14:16.629Z,21.10
2018-11-05T06:16:44.219Z,24.37
2018-11-05T06:19:12.093Z,24.23
2018-11-05T06:21:39.916Z,24.83
2018-11-05T06:24:08.396Z,32.07
2018-11-05T06:26:37.013Z,28.63
2018-11-05T06:29:05.209Z,29.20
2018-11-05T06:31:33.566Z,31.97
2018-11-05T06:34:07.995Z,26.40
2018-11-05T06:36:36.003Z,28.33
2018-11-05T06:39:08.808Z,30.17
2018-11-05T06:41:36.491Z,30.17
2018-11-05T06:44:04.377Z,26.23
2018-11-05T06:46:31.856Z,29.40
2018-11-05T06:49:00.501Z,31.10
2018-11-05T06:51:27.990Z,28.00
2018-11-05T06:53:55.586Z,27.07
2018-11-05T06:56:24.493Z,29.10
2018-11-05T06:58:53.687Z,34.33
2018-11-05T07:01:22.170Z,27.03
2018-11-05T07:03:50.666Z,30.37
2018-11-05T07:06:18.223Z,28.80
2018-11-05T07:08:45.935Z,29.53
2018-11-05T07:11:14.601Z,28.57
2018-11-05T07:13:43.061Z,31.23
2018-11-05T07:16:10.623Z,29.10
2018-11-05T07:18:38.727Z,29.27
2018-11-05T07:21:06.823Z,32.53
2018-11-05T07:23:34.651Z,27.90
2018-11-05T07:26:03.740Z,28.87
2018-11-05T07:28:31.272Z,27.03
2018-11-05T07:30:58.833Z,26.73
2018-11-05T07:33:26.387Z,31.50
2018-11-05T07:35:54.275Z,30.80
2018-11-05T07:38:24.282Z,30.57
2018-11-05T07:40:51.809Z,29.37
2018-11-05T07:43:19.356Z,26.73
2018-11-05T07:45:46.972Z,31.83
2018-11-05T07:48:14.600Z,29.03
2018-11-05T07:50:44.234Z,28.67
2018-11-05T07:53:11.827Z,24.23
2018-11-05T07:55:39.339Z,29.63
2018-11-05T07:58:06.815Z,29.47
2018-11-05T08:00:41.485Z,26.37
2018-11-05T08:03:10.063Z,30.90
2018-11-05T08:05:37.800Z,32.37
2018-11-05T08:08:05.913Z,30.33
2018-11-05T08:10:33.394Z,29.83
2018-11-05T08:13:01.195Z,31.57
2018-11-05T08:15:32.178Z,27.33
2018-11-05T08:17:59.738Z,32.23
2018-11-05T08:20:27.534Z,29.13
2018-11-05T08:22:55.135Z,29.50
2018-11-05T08:25:22.751Z,27.80
2018-11-05T08:27:51.218Z,33.10
2018-11-05T08:30:20.272Z,30.00
2018-11-05T08:32:47.783Z,30.50
2018-11-05T08:35:16.065Z,37.27
2018-11-05T08:37:44.998Z,29.67
2018-11-05T08:40:16.581Z,33.30
2018-11-05T08:42:44.949Z,30.37
2018-11-05T08:45:13.685Z,37.03
2018-11-05T08:47:41.420Z,29.63
2018-11-05T08:50:11.025Z,34.13
2018-11-05T08:52:39.489Z,37.90
2018-11-05T08:55:09.256Z,34.57
2018-11-05T08:57:37.647Z,31.63
2018-11-05T09:00:08.301Z,31.37
2018-11-05T09:02:37.194Z,33.33
2018-11-05T09:05:06.120Z,30.33
2018-11-05T09:07:35.056Z,35.17
2018-11-05T09:10:02.837Z,31.40
2018-11-05T09:12:30.206Z,30.70
2018-11-05T09:14:57.764Z,28.87
2018-11-05T09:17:26.376Z,34.70
2018-11-05T09:19:53.911Z,30.93
2018-11-05T09:22:21.579Z,30.30
2018-11-05T09:24:49.199Z,34.40
2018-11-05T09:27:16.761Z,29.93
2018-11-05T09:29:47.533Z,32.03
2018-11-05T09:32:15.176Z,35.27
2018-11-05T09:34:44.474Z,33.90
2018-11-05T09:40:44.009Z,38.67
2018-11-05T09:43:11.677Z,27.83
2018-11-05T09:45:39.166Z,31.27
2018-11-05T09:48:06.649Z,33.10
2018-11-05T09:50:34.354Z,32.37
2018-11-05T09:53:03.715Z,26.57
2018-11-05T09:55:31.367Z,33.80
2018-11-05T09:57:59.051Z,31.10
2018-11-05T10:00:27.360Z,32.53
2018-11-05T10:03:02.232Z,32.00
2018-11-05T10:05:30.524Z,32.83
2018-11-05T10:07:58.936Z,27.93
2018-11-05T10:10:26.660Z,32.73
2018-11-05T10:12:54.109Z,36.30
2018-11-05T10:15:21.688Z,33.87
2018-11-05T10:17:49.607Z,28.47
2018-11-05T10:20:22.598Z,30.33
2018-11-05T10:22:50.164Z,33.90
2018-11-05T10:25:18.837Z,29.10
2018-11-05T10:27:46.784Z,32.80
2018-11-05T10:30:17.872Z,30.93
2018-11-05T10:32:45.944Z,32.43
2018-11-05T10:35:14.445Z,30.77
2018-11-05T10:37:42.093Z,28.37
2018-11-05T10:40:14.843Z,31.20
2018-11-05T10:42:44.973Z,32.47
2018-11-05T10:45:14.315Z,28.50
2018-11-05T10:47:41.950Z,29.33
2018-11-05T10:50:11.025Z,30.20
2018-11-05T10:52:38.540Z,30.37
2018-11-05T10:55:06.793Z,26.67
2018-11-05T10:57:35.618Z,28.77
2018-11-05T11:00:03.277Z,28.63
2018-11-05T11:02:37.672Z,30.20
2018-11-05T11:05:07.283Z,31.43
2018-11-05T11:07:35.865Z,28.33
2018-11-05T11:10:04.143Z,29.07
2018-11-05T11:12:31.676Z,29.50
2018-11-05T11:14:59.306Z,29.90
2018-11-05T11:17:27.925Z,33.63
2018-11-05T11:21:25.859Z,33.00
2018-11-05T11:23:54.799Z,32.63
2018-11-05T11:26:22.972Z,29.00
2018-11-05T11:28:51.917Z,28.97
2018-11-05T11:31:19.485Z,30.13
2018-11-05T11:33:47.091Z,31.33
2018-11-05T11:36:14.828Z,35.70
2018-11-05T11:38:42.442Z,34.53
2018-11-05T11:41:11.178Z,30.20
2018-11-05T11:43:38.747Z,32.63
2018-11-05T11:46:07.686Z,34.07
2018-11-05T11:48:35.181Z,35.57
2018-11-05T11:51:02.833Z,34.13
2018-11-05T11:53:35.426Z,29.97
2018-11-05T11:56:02.974Z,28.87
2018-11-05T11:58:30.449Z,33.43
2018-11-05T12:00:58.212Z,31.73
2018-11-05T12:03:25.729Z,31.83
2018-11-05T12:05:54.630Z,28.53
2018-11-05T12:08:23.709Z,31.67
2018-11-05T12:10:51.378Z,32.63
2018-11-05T12:13:18.939Z,29.87
2018-11-05T12:15:46.616Z,31.57
2018-11-05T12:18:16.455Z,30.10
2018-11-05T12:20:44.121Z,27.67
2018-11-05T12:23:12.866Z,29.53
2018-11-05T12:25:40.400Z,30.77
2018-11-05T12:28:08.132Z,30.87
2018-11-05T12:30:36.610Z,35.37
2018-11-05T12:33:04.687Z,30.93
2018-11-05T12:35:32.249Z,32.83
2018-11-05T12:37:59.918Z,32.23
2018-11-05T12:40:27.439Z,32.23
2018-11-05T12:42:56.586Z,30.20
2018-11-05T12:45:24.204Z,32.40
2018-11-05T12:47:52.408Z,30.60
2018-11-05T12:50:23.003Z,29.53
2018-11-05T12:52:51.723Z,28.97
2018-11-05T12:55:20.317Z,29.13
2018-11-05T12:57:48.281Z,28.70
2018-11-05T13:00:22.008Z,33.13
2018-11-05T13:03:00.094Z,33.47
2018-11-05T13:05:31.348Z,33.07
2018-11-05T13:07:59.229Z,28.37
2018-11-05T13:10:26.794Z,29.50
2018-11-05T13:12:54.406Z,26.73
2018-11-05T13:15:22.084Z,26.37
2018-11-05T13:17:50.616Z,31.67
2018-11-05T13:20:19.484Z,33.37
2018-11-05T13:22:47.327Z,28.03
2018-11-05T13:25:14.878Z,29.40
2018-11-05T13:27:43.612Z,32.40
2018-11-05T13:30:13.784Z,27.87
2018-11-05T13:32:41.884Z,27.67
2018-11-05T13:35:13.955Z,27.90
2018-11-05T13:37:41.919Z,28.20
2018-11-05T13:40:11.386Z,25.87
2018-11-05T13:42:39.917Z,29.17
2018-11-05T13:45:08.688Z,27.17
2018-11-05T13:47:36.931Z,31.63
2018-11-05T13:50:05.609Z,26.97
2018-11-05T13:52:32.880Z,29.17
2018-11-05T13:55:02.640Z,27.97
2018-11-05T13:57:30.100Z,26.73
2018-11-05T13:59:57.713Z,30.23
2018-11-05T14:02:25.244Z,26.30
2018-11-05T14:04:52.947Z,31.77
2018-11-05T14:07:21.375Z,30.20
2018-11-05T14:09:48.929Z,27.10
2018-11-05T14:12:17.725Z,29.03
2018-11-05T14:14:45.259Z,26.97
2018-11-05T14:17:14.221Z,28.07
2018-11-05T14:19:42.814Z,28.57
2018-11-05T14:22:10.312Z,28.43
2018-11-05T14:24:37.831Z,25.37
2018-11-05T14:27:05.669Z,31.40
2018-11-05T14:29:34.808Z,31.00
2018-11-05T14:32:02.761Z,30.03
2018-11-05T14:34:30.333Z,26.37
2018-11-05T14:36:57.933Z,31.30
2018-11-05T14:39:26.447Z,27.63
2018-11-05T14:41:54.355Z,24.00
2018-11-05T14:44:24.358Z,23.70
2018-11-05T14:46:52.001Z,29.07
2018-11-05T14:49:19.652Z,31.10
2018-11-05T14:51:47.787Z,31.03
2018-11-05T14:54:15.430Z,25.40
2018-11-05T14:56:44.115Z,30.13
2018-11-05T14:59:11.618Z,32.87
2018-11-05T15:01:39.142Z,34.93
2018-11-05T15:04:07.940Z,27.37
2018-11-05T15:06:35.424Z,26.17
2018-11-05T15:09:07.235Z,25.07
2018-11-05T15:11:34.958Z,28.50
2018-11-05T15:14:02.445Z,26.77
2018-11-05T15:16:30.070Z,21.87
2018-11-05T15:18:58.227Z,25.03
2018-11-05T15:21:26.815Z,24.57
2018-11-05T15:23:54.335Z,26.50
2018-11-05T15:26:22.671Z,28.20
2018-11-05T15:28:50.252Z,30.67
2018-11-05T15:31:17.809Z,29.17
2018-11-05T15:33:47.574Z,27.30
2018-11-05T15:36:15.239Z,30.50
2018-11-05T15:38:42.745Z,25.93
2018-11-05T15:41:11.516Z,26.87
2018-11-05T15:43:38.960Z,27.80
2018-11-05T15:46:08.181Z,30.57
2018-11-05T15:48:35.805Z,28.97
2018-11-05T15:51:03.508Z,28.63
2018-11-05T15:53:31.509Z,24.57
2018-11-05T15:55:59.371Z,29.70
2018-11-05T15:58:28.968Z,28.00
2018-11-05T16:00:56.532Z,34.20
2018-11-05T16:03:24.036Z,32.87
2018-11-05T16:05:51.693Z,33.43
2018-11-05T16:08:19.306Z,28.80
2018-11-05T16:10:48.174Z,29.70
2018-11-05T16:13:15.831Z,31.33
2018-11-05T16:15:43.397Z,29.13
2018-11-05T16:18:12.181Z,30.13
2018-11-05T16:20:39.687Z,31.27
2018-11-05T16:23:09.408Z,29.27
2018-11-05T16:25:37.057Z,28.40
2018-11-05T16:28:05.392Z,28.27
2018-11-05T16:30:33.077Z,29.87
2018-11-05T16:33:00.452Z,31.33
2018-11-05T16:35:29.245Z,26.77
2018-11-05T16:37:56.658Z,32.60
2018-11-05T16:40:25.481Z,32.43
2018-11-05T16:42:53.109Z,32.90
2018-11-05T16:45:20.680Z,33.47
2018-11-05T16:47:50.583Z,35.00
2018-11-05T16:50:23.000Z,29.80
2018-11-05T16:52:50.559Z,28.27
2018-11-05T16:55:18.425Z,31.00
2018-11-05T16:57:46.129Z,34.83
2018-11-05T17:00:15.080Z,32.73
2018-11-05T17:02:43.442Z,31.83
2018-11-05T17:05:10.995Z,29.67
2018-11-05T17:07:38.689Z,31.57
2018-11-05T17:10:07.737Z,36.40
2018-11-05T17:12:37.679Z,30.87
2018-11-05T17:15:09.458Z,32.47
2018-11-05T17:17:37.508Z,34.57
2018-11-05T17:20:07.114Z,32.43
2018-11-05T17:22:35.289Z,32.70
2018-11-05T17:25:03.933Z,29.80
2018-11-05T17:27:31.491Z,34.87
2018-11-05T17:29:59.239Z,30.93
2018-11-05T17:32:26.992Z,30.63
2018-11-05T17:34:54.878Z,32.97
2018-11-05T17:37:24.641Z,26.67
2018-11-05T17:39:52.166Z,24.97
2018-11-05T17:42:19.824Z,35.93
2018-11-05T17:44:47.957Z,33.07
2018-11-05T17:47:15.459Z,30.63
2018-11-05T17:49:44.198Z,36.43
2018-11-05T17:52:11.797Z,31.40
2018-11-05T17:54:39.693Z,28.20
2018-11-05T17:57:08.465Z,28.90
2018-11-05T17:59:36.089Z,25.93
2018-11-05T18:02:04.982Z,30.80
2018-11-05T18:04:32.555Z,35.23
2018-11-05T18:07:00.115Z,35.83
2018-11-05T18:09:27.834Z,28.63
2018-11-05T18:11:55.345Z,29.70
2018-11-05T18:14:23.937Z,32.77
2018-11-05T18:16:51.798Z,34.93
2018-11-05T18:19:19.382Z,31.17
2018-11-05T18:21:47.749Z,30.80
2018-11-05T18:24:15.401Z,30.17
2018-11-05T18:26:45.222Z,30.37
2018-11-05T18:29:13.400Z,33.93
2018-11-05T18:31:41.749Z,33.77
2018-11-05T18:34:09.334Z,32.60
2018-11-05T18:36:37.442Z,30.57
2018-11-05T18:39:08.617Z,36.10
2018-11-05T18:41:36.339Z,37.33
2018-11-05T18:44:05.167Z,38.20
2018-11-05T18:46:32.776Z,30.63
2018-11-05T18:49:00.400Z,33.63
2018-11-05T18:51:30.263Z,31.87
2018-11-05T18:53:58.151Z,30.87
2018-11-05T18:56:25.869Z,37.37
2018-11-05T18:58:53.449Z,33.47
2018-11-05T19:01:20.985Z,33.20
2018-11-05T19:03:49.551Z,35.40
2018-11-05T19:06:17.133Z,30.73
2018-11-05T19:08:44.610Z,33.07
2018-11-05T19:11:12.080Z,36.03
2018-11-05T19:13:39.702Z,36.00
2018-11-05T19:16:09.366Z,34.53
2018-11-05T19:18:36.914Z,33.93
2018-11-05T19:21:06.066Z,35.63
2018-11-05T19:23:34.675Z,35.73
2018-11-05T19:26:02.172Z,34.90
2018-11-05T19:28:31.098Z,33.33
2018-11-05T19:30:58.609Z,38.53
2018-11-05T19:33:26.582Z,36.90
2018-11-05T19:35:54.069Z,35.80
2018-11-05T19:38:21.601Z,37.80
2018-11-05T19:40:51.098Z,35.87
2018-11-05T19:43:19.849Z,32.03
2018-11-05T19:45:47.290Z,36.13
2018-11-05T19:48:14.833Z,35.40
2018-11-05T19:50:43.556Z,38.67
2018-11-05T19:53:12.176Z,34.63
2018-11-05T19:55:40.063Z,36.37
2018-11-05T19:58:07.753Z,38.17
2018-11-05T20:00:36.315Z,35.10
2018-11-05T20:03:03.877Z,33.67
2018-11-05T20:05:32.768Z,36.57
2018-11-05T20:08:00.203Z,36.43
2018-11-05T20:10:27.895Z,36.63
2018-11-05T20:12:55.607Z,39.93
2018-11-05T20:15:23.226Z,38.77
2018-11-05T20:17:53.899Z,34.70
2018-11-05T20:20:23.002Z,35.43
2018-11-05T20:22:50.531Z,34.33
2018-11-05T20:25:19.323Z,36.77
2018-11-05T20:27:47.599Z,33.90
2018-11-05T20:30:18.258Z,34.30
2018-11-05T20:32:47.010Z,37.40
2018-11-05T20:35:14.723Z,37.73
2018-11-05T20:37:42.246Z,36.20
2018-11-05T20:40:14.380Z,35.20
2018-11-05T20:42:44.577Z,37.47
2018-11-05T20:45:12.984Z,33.23
2018-11-05T20:47:40.957Z,35.60
2018-11-05T20:50:10.722Z,35.87
2018-11-05T20:52:38.693Z,35.53
2018-11-05T20:55:07.350Z,37.57
2018-11-05T20:57:35.086Z,38.47
2018-11-05T21:00:02.790Z,35.07
2018-11-05T21:02:30.817Z,38.23
2018-11-05T21:04:58.418Z,38.87
2018-11-05T21:07:26.869Z,31.63
2018-11-05T21:09:55.046Z,37.93
2018-11-05T21:12:22.633Z,36.07
2018-11-05T21:14:50.812Z,33.73
2018-11-05T21:17:18.462Z,38.47
2018-11-05T21:19:46.718Z,39.40
2018-11-05T21:22:14.892Z,41.27
2018-11-05T21:24:43.513Z,36.73
2018-11-05T21:27:11.500Z,36.60
2018-11-05T21:29:39.113Z,36.83
2018-11-05T21:32:07.522Z,40.97
2018-11-05T21:34:35.032Z,39.03
2018-11-05T21:37:02.590Z,37.20
2018-11-05T21:39:30.626Z,42.40
2018-11-05T21:41:59.567Z,38.47
2018-11-05T21:44:27.656Z,38.30
2018-11-05T21:46:55.524Z,41.77
2018-11-05T21:49:23.328Z,44.07
2018-11-05T21:51:51.893Z,39.40
2018-11-05T21:54:19.552Z,42.93
2018-11-05T21:56:50.185Z,42.93
2018-11-05T21:59:17.765Z,41.40
2018-11-05T22:01:45.643Z,43.93
2018-11-05T22:04:13.880Z,39.53
2018-11-05T22:06:41.644Z,39.83
2018-11-05T22:09:09.791Z,42.37
2018-11-05T22:11:37.792Z,39.13
2018-11-05T22:14:05.426Z,40.23
2018-11-05T22:16:33.454Z,45.13
2018-11-05T22:19:01.567Z,36.43
2018-11-05T22:21:30.809Z,41.63
2018-11-05T22:23:58.815Z,40.00
2018-11-05T22:26:26.723Z,41.57
2018-11-05T22:28:55.327Z,38.20
2018-11-05T22:31:22.807Z,42.40
2018-11-05T22:33:50.884Z,38.20
2018-11-05T22:36:18.416Z,42.13
2018-11-05T22:38:45.892Z,41.37
2018-11-05T22:41:14.898Z,42.40
2018-11-05T22:43:42.422Z,42.47
2018-11-05T22:46:11.260Z,44.77
2018-11-05T22:48:38.797Z,42.93
2018-11-05T22:51:06.401Z,38.17
2018-11-05T22:53:35.950Z,40.70
2018-11-05T22:56:03.527Z,48.13
2018-11-05T22:58:31.520Z,45.93
2018-11-05T23:01:02.857Z,45.80
2018-11-05T23:03:30.886Z,40.70
2018-11-05T23:05:59.350Z,43.03
2018-11-05T23:08:27.427Z,43.43
2018-11-05T23:10:56.945Z,38.40
2018-11-05T23:13:24.552Z,38.80
2018-11-05T23:15:52.201Z,39.63
2018-11-05T23:18:20.998Z,38.20
2018-11-05T23:20:48.687Z,41.90
2018-11-05T23:23:16.678Z,38.73
2018-11-05T23:25:44.853Z,38.40
2018-11-05T23:28:12.358Z,41.07
2018-11-05T23:30:40.328Z,45.93
2018-11-05T23:33:08.212Z,39.10
2018-11-05T23:35:37.127Z,42.93
2018-11-05T23:38:04.832Z,41.30
2018-11-05T23:40:32.821Z,44.83
2018-11-05T23:43:00.905Z,43.47
2018-11-05T23:45:28.462Z,39.27
2018-11-05T23:47:56.738Z,40.73
2018-11-05T23:50:24.194Z,42.03
2018-11-05T23:52:51.679Z,45.03
2018-11-05T23:55:19.645Z,47.57
2018-11-05T23:57:47.500Z,40.40
